createdAt,value
2022-11-19T00:01:18.154Z,19.77
2022-11-19T00:06:22.677Z,19.33
2022-11-19T00:11:46.966Z,18.03
2022-11-19T00:16:48.909Z,24.27
2022-11-19T00:21:50.911Z,20.03
2022-11-19T00:26:52.649Z,20.70
2022-11-19T00:31:54.387Z,18.37
2022-11-19T00:36:56.408Z,20.70
2022-11-19T00:41:58.335Z,24.60
2022-11-19T00:47:00.097Z,15.53
2022-11-19T00:52:02.227Z,19.57
2022-11-19T00:57:04.089Z,19.50
2022-11-19T01:02:05.874Z,17.87
2022-11-19T01:07:07.812Z,16.63
2022-11-19T01:12:09.748Z,19.47
2022-11-19T01:17:11.664Z,21.83
2022-11-19T01:22:13.560Z,19.27
2022-11-19T01:27:15.293Z,20.47
2022-11-19T01:32:17.270Z,22.10
2022-11-19T01:37:20.202Z,18.30
2022-11-19T01:42:46.992Z,19.37
2022-11-19T01:47:48.927Z,19.83
2022-11-19T01:52:51.250Z,19.67
2022-11-19T01:57:58.447Z,14.67
2022-11-19T02:03:00.962Z,21.37
2022-11-19T02:08:07.128Z,18.97
2022-11-19T02:13:34.564Z,17.37
2022-11-19T02:19:25.089Z,20.00
2022-11-19T02:24:44.764Z,24.23
2022-11-19T02:30:06.104Z,21.13
2022-11-19T02:35:17.689Z,24.40
2022-11-19T02:40:34.503Z,23.03
2022-11-19T02:45:41.570Z,24.37
2022-11-19T02:50:51.897Z,25.67
2022-11-19T02:56:11.961Z,24.73
2022-11-19T03:01:33.034Z,26.80
2022-11-19T03:06:35.241Z,23.27
2022-11-19T03:11:37.135Z,28.50
2022-11-19T03:16:42.142Z,26.73
2022-11-19T03:21:53.898Z,22.87
2022-11-19T03:27:01.487Z,27.13
2022-11-19T03:32:14.870Z,27.27
2022-11-19T03:37:19.155Z,23.10
2022-11-19T03:42:22.537Z,22.43
2022-11-19T03:47:33.814Z,27.07
2022-11-19T03:52:35.806Z,22.87
2022-11-19T03:57:37.906Z,22.30
2022-11-19T04:02:40.678Z,25.47
2022-11-19T04:07:42.592Z,21.30
2022-11-19T04:12:44.483Z,21.00
2022-11-19T04:17:46.422Z,23.00
2022-11-19T04:22:51.156Z,26.27
2022-11-19T04:27:53.190Z,22.10
2022-11-19T04:32:55.000Z,19.17
2022-11-19T04:37:56.970Z,21.27
2022-11-19T04:42:58.903Z,19.23
2022-11-19T04:48:00.691Z,25.27
2022-11-19T04:53:02.455Z,21.60
2022-11-19T04:58:04.322Z,17.10
2022-11-19T05:03:06.650Z,19.60
2022-11-19T05:08:08.643Z,21.77
2022-11-19T05:13:10.612Z,23.07
2022-11-19T05:18:13.418Z,20.23
2022-11-19T05:23:15.154Z,20.13
2022-11-19T05:28:17.183Z,20.47
2022-11-19T05:33:19.060Z,24.53
2022-11-19T05:38:20.859Z,23.23
2022-11-19T05:43:22.586Z,23.77
2022-11-19T05:48:24.319Z,24.00
2022-11-19T05:53:26.808Z,19.53
2022-11-19T05:58:28.686Z,25.20
2022-11-19T06:03:30.892Z,24.43
2022-11-19T06:08:32.780Z,23.80
2022-11-19T06:13:34.517Z,27.67
2022-11-19T06:18:36.398Z,24.83
2022-11-19T06:23:38.150Z,27.03
2022-11-19T06:28:40.026Z,26.17
2022-11-19T06:33:42.074Z,30.67
2022-11-19T06:38:44.060Z,30.10
2022-11-19T06:43:45.926Z,32.30
2022-11-19T06:48:47.813Z,23.57
2022-11-19T06:53:49.679Z,19.80
2022-11-19T06:58:51.588Z,12.70
2022-11-19T07:03:53.412Z,10.33
2022-11-19T07:08:55.177Z,12.47
2022-11-19T07:13:57.904Z,13.93
2022-11-19T07:19:01.480Z,14.57
2022-11-19T07:24:06.851Z,13.13
2022-11-19T07:29:11.393Z,12.77
2022-11-19T07:34:13.304Z,14.67
2022-11-19T07:39:16.076Z,15.33
2022-11-19T07:44:18.380Z,12.47
2022-11-19T07:49:21.527Z,12.67
2022-11-19T07:54:23.736Z,14.50
2022-11-19T07:59:27.033Z,13.30
2022-11-19T08:04:29.156Z,14.67
2022-11-19T08:09:31.078Z,12.37
2022-11-19T08:14:33.027Z,15.03
2022-11-19T08:19:35.087Z,12.93
2022-11-19T08:24:37.414Z,10.80
2022-11-19T08:29:39.158Z,8.80
2022-11-19T08:34:41.066Z,10.77
2022-11-19T08:39:43.172Z,10.87
2022-11-19T08:44:44.909Z,11.10
2022-11-19T08:49:46.813Z,9.80
2022-11-19T08:54:51.439Z,7.80
2022-11-19T08:59:53.274Z,8.57
2022-11-19T09:04:55.066Z,10.60
2022-11-19T09:09:57.000Z,11.37
2022-11-19T09:14:58.853Z,17.80
2022-11-19T09:20:00.869Z,22.73
2022-11-19T09:25:03.025Z,22.43
2022-11-19T09:30:06.620Z,21.40
2022-11-19T09:35:08.680Z,24.37
2022-11-19T09:40:18.684Z,30.87
2022-11-19T09:45:57.592Z,25.90
2022-11-19T09:51:12.918Z,24.93
2022-11-19T09:56:21.321Z,23.83
2022-11-19T10:01:23.345Z,26.63
2022-11-19T10:06:29.392Z,23.50
2022-11-19T10:11:56.043Z,26.37
2022-11-19T10:17:22.493Z,26.50
2022-11-19T10:22:39.141Z,28.10
2022-11-19T10:27:48.368Z,30.90
2022-11-19T10:32:55.636Z,35.83
2022-11-19T10:38:10.610Z,36.13
2022-11-19T10:43:38.686Z,33.53
2022-11-19T10:49:03.258Z,34.77
2022-11-19T10:54:14.651Z,32.80
2022-11-19T10:59:20.184Z,28.07
2022-11-19T11:04:27.616Z,30.07
2022-11-19T11:09:40.820Z,31.77
2022-11-19T11:14:54.078Z,33.40
2022-11-19T11:20:02.407Z,34.63
2022-11-19T11:25:12.093Z,30.40
2022-11-19T11:30:13.980Z,28.47
2022-11-19T11:35:33.881Z,29.53
2022-11-19T11:40:35.662Z,31.40
2022-11-19T11:45:38.150Z,34.50
2022-11-19T11:50:45.700Z,34.60
2022-11-19T11:55:57.291Z,38.53
2022-11-19T12:01:15.673Z,31.63
2022-11-19T12:06:19.981Z,29.67
2022-11-19T12:11:55.522Z,30.67
2022-11-19T12:17:45.132Z,26.33
2022-11-19T12:22:51.279Z,30.37
2022-11-19T12:28:05.126Z,33.77
2022-11-19T12:33:23.187Z,29.37
2022-11-19T12:38:56.702Z,28.83
2022-11-19T12:44:00.728Z,24.57
2022-11-19T12:49:27.495Z,23.53
2022-11-19T12:55:04.323Z,29.20
2022-11-19T13:00:11.685Z,25.10
2022-11-19T13:05:18.499Z,21.03
2022-11-19T13:10:35.124Z,19.00
2022-11-19T13:15:39.182Z,22.50
2022-11-19T13:20:47.831Z,23.77
2022-11-19T13:26:03.061Z,21.30
2022-11-19T13:31:12.663Z,19.43
2022-11-19T13:36:31.566Z,21.60
2022-11-19T13:41:59.052Z,38.43
2022-11-19T13:47:01.283Z,31.10
2022-11-19T13:52:13.327Z,28.33
2022-11-19T13:57:36.809Z,25.90
2022-11-19T14:03:16.300Z,27.73
2022-11-19T14:08:43.016Z,36.83
2022-11-19T14:14:08.179Z,38.80
2022-11-19T14:19:33.728Z,45.60
2022-11-19T14:24:54.049Z,29.30
2022-11-19T14:30:17.391Z,36.80
2022-11-19T14:35:25.346Z,32.30
2022-11-19T14:40:30.714Z,43.03
2022-11-19T14:45:32.627Z,36.77
2022-11-19T14:50:34.526Z,37.10
2022-11-19T14:55:36.618Z,43.37
2022-11-19T15:00:41.158Z,47.03
2022-11-19T15:05:46.183Z,40.13
2022-11-19T15:11:06.531Z,42.03
2022-11-19T15:16:13.167Z,35.37
2022-11-19T15:21:30.090Z,47.67
2022-11-19T15:26:53.609Z,44.87
2022-11-19T15:31:55.331Z,36.87
2022-11-19T15:37:03.353Z,55.03
2022-11-19T15:42:16.852Z,50.80
2022-11-19T15:47:24.267Z,32.70
2022-11-19T15:52:31.993Z,44.23
2022-11-19T15:57:34.835Z,40.03
2022-11-19T16:02:42.311Z,45.67
2022-11-19T16:07:46.516Z,41.93
2022-11-19T16:13:22.974Z,40.40
2022-11-19T16:18:24.733Z,53.40
2022-11-19T16:23:27.171Z,46.77
2022-11-19T16:28:32.923Z,33.30
2022-11-19T16:33:34.939Z,42.70
2022-11-19T16:38:39.054Z,50.67
2022-11-19T16:43:44.668Z,44.10
2022-11-19T16:48:49.683Z,45.80
2022-11-19T16:53:51.589Z,47.30
2022-11-19T16:58:58.101Z,63.03
2022-11-19T17:04:04.996Z,56.40
2022-11-19T17:09:07.083Z,39.40
2022-11-19T17:14:30.651Z,42.67
2022-11-19T17:19:34.357Z,42.73
2022-11-19T17:24:43.245Z,47.17
2022-11-19T17:29:45.383Z,47.80
2022-11-19T17:34:49.096Z,54.77
2022-11-19T17:39:51.005Z,40.83
2022-11-19T17:44:54.353Z,39.40
2022-11-19T17:49:56.549Z,47.27
2022-11-19T17:55:10.290Z,39.40
2022-11-19T18:00:12.828Z,36.97
2022-11-19T18:05:19.653Z,41.23
2022-11-19T18:10:22.604Z,40.33
2022-11-19T18:15:24.444Z,43.03
2022-11-19T18:20:26.736Z,46.40
2022-11-19T18:25:28.704Z,45.17
2022-11-19T18:30:30.702Z,51.43
2022-11-19T18:35:33.003Z,37.13
2022-11-19T18:40:35.684Z,32.57
2022-11-19T18:45:37.635Z,32.37
2022-11-19T18:50:39.547Z,40.73
2022-11-19T18:55:41.336Z,38.97
2022-11-19T19:00:43.440Z,51.13
2022-11-19T19:05:45.218Z,36.07
2022-11-19T19:10:47.087Z,51.10
2022-11-19T19:15:48.971Z,36.73
2022-11-19T19:20:51.021Z,40.93
2022-11-19T19:25:52.755Z,37.90
2022-11-19T19:30:58.764Z,35.97
2022-11-19T19:36:05.057Z,40.23
2022-11-19T19:41:11.392Z,40.53
2022-11-19T19:46:16.198Z,33.33
2022-11-19T19:51:19.083Z,34.93
2022-11-19T19:56:23.642Z,32.33
2022-11-19T20:01:28.061Z,38.57
2022-11-19T20:06:30.572Z,32.57
2022-11-19T20:11:32.409Z,32.57
2022-11-19T20:16:38.169Z,38.40
2022-11-19T20:21:40.072Z,36.03
2022-11-19T20:26:42.691Z,40.67
2022-11-19T20:31:49.865Z,43.07
2022-11-19T20:36:51.797Z,44.63
2022-11-19T20:42:12.318Z,44.80
2022-11-19T20:47:14.336Z,37.70
2022-11-19T20:52:17.883Z,36.80
2022-11-19T20:57:19.911Z,34.73
2022-11-19T21:02:22.371Z,38.67
2022-11-19T21:07:24.379Z,38.17
2022-11-19T21:12:26.308Z,38.87
2022-11-19T21:17:28.397Z,40.63
2022-11-19T21:22:30.266Z,42.00
2022-11-19T21:27:32.276Z,40.47
2022-11-19T21:32:34.207Z,40.83
2022-11-19T21:37:36.231Z,38.87
2022-11-19T21:42:38.275Z,38.43
2022-11-19T21:47:41.177Z,35.97
2022-11-19T21:52:43.208Z,36.30
2022-11-19T21:57:45.096Z,35.37
2022-11-19T22:02:47.139Z,39.53
2022-11-19T22:07:50.043Z,38.40
2022-11-19T22:12:51.896Z,37.80
2022-11-19T22:17:54.217Z,34.40
2022-11-19T22:22:58.129Z,35.10
2022-11-19T22:28:00.086Z,38.60
2022-11-19T22:33:02.038Z,37.23
2022-11-19T22:38:03.784Z,31.13
2022-11-19T22:43:05.582Z,36.10
2022-11-19T22:48:07.350Z,31.07
2022-11-19T22:53:09.752Z,31.97
2022-11-19T22:58:11.514Z,35.37
2022-11-19T23:03:14.120Z,33.80
2022-11-19T23:08:15.898Z,33.20
2022-11-19T23:13:33.071Z,36.30
2022-11-19T23:18:56.303Z,44.30
2022-11-19T23:24:01.998Z,40.97
2022-11-19T23:29:04.349Z,39.27
2022-11-19T23:34:07.023Z,39.07
2022-11-19T23:39:15.055Z,32.40
2022-11-19T23:44:16.991Z,38.10
2022-11-19T23:49:19.186Z,36.40
2022-11-19T23:54:21.480Z,37.53
2022-11-19T23:59:25.808Z,35.33
